createdAt,value
2019-05-01T00:02:45.675Z,105.20
2019-05-01T00:05:20.201Z,142.30
2019-05-01T00:07:50.142Z,142.00
2019-05-01T00:10:22.298Z,124.97
2019-05-01T00:12:52.284Z,132.67
2019-05-01T00:15:24.489Z,105.03
2019-05-01T00:17:54.430Z,106.83
2019-05-01T00:20:24.465Z,88.80
2019-05-01T00:22:54.446Z,90.93
2019-05-01T00:25:24.625Z,112.67
2019-05-01T00:27:54.540Z,106.23
2019-05-01T00:30:29.951Z,95.57
2019-05-01T00:32:56.335Z,99.10
2019-05-01T00:35:26.290Z,109.03
2019-05-01T00:37:56.205Z,120.73
2019-05-01T00:40:26.247Z,111.87
2019-05-01T00:42:56.230Z,121.00
2019-05-01T00:45:26.227Z,109.93
2019-05-01T00:47:56.142Z,106.27
2019-05-01T00:50:26.098Z,99.80
2019-05-01T00:52:56.601Z,96.10
2019-05-01T00:55:57.761Z,127.40
2019-05-01T00:58:42.003Z,106.43
2019-05-01T01:01:41.872Z,103.00
2019-05-01T01:04:14.483Z,106.00
2019-05-01T01:06:44.492Z,95.10
2019-05-01T01:09:16.329Z,95.47
2019-05-01T01:11:46.374Z,99.97
2019-05-01T01:14:16.450Z,94.80
2019-05-01T01:16:46.698Z,81.27
2019-05-01T01:19:16.825Z,131.83
2019-05-01T01:21:47.559Z,111.53
2019-05-01T01:24:17.894Z,113.00
2019-05-01T01:26:48.233Z,109.57
2019-05-01T01:29:18.190Z,107.23
2019-05-01T01:31:48.188Z,107.87
2019-05-01T01:34:18.088Z,88.70
2019-05-01T01:36:48.645Z,113.20
2019-05-01T01:39:18.568Z,102.80
2019-05-01T01:41:48.736Z,83.67
2019-05-01T01:44:35.070Z,76.20
2019-05-01T01:47:05.153Z,84.27
2019-05-01T01:49:35.269Z,89.10
2019-05-01T01:52:05.290Z,95.33
2019-05-01T01:54:35.466Z,91.13
2019-05-01T01:57:05.563Z,88.73
2019-05-01T01:59:35.655Z,74.53
2019-05-01T02:02:34.385Z,86.93
2019-05-01T02:05:11.010Z,94.50
2019-05-01T02:07:42.021Z,84.47
2019-05-01T02:10:12.738Z,97.57
2019-05-01T02:12:43.484Z,87.53
2019-05-01T02:15:14.252Z,95.43
2019-05-01T02:17:44.676Z,100.60
2019-05-01T02:20:14.927Z,79.10
2019-05-01T02:22:45.404Z,101.57
2019-05-01T02:25:16.306Z,90.20
2019-05-01T02:27:55.006Z,75.63
2019-05-01T02:30:25.843Z,94.17
2019-05-01T02:32:57.113Z,86.30
2019-05-01T02:35:30.370Z,93.47
2019-05-01T02:38:00.729Z,80.57
2019-05-01T02:40:53.200Z,94.57
2019-05-01T02:43:26.973Z,92.67
2019-05-01T02:45:58.951Z,80.87
2019-05-01T02:48:34.065Z,96.57
2019-05-01T02:51:06.039Z,88.77
2019-05-01T02:53:39.079Z,98.37
2019-05-01T02:56:43.306Z,86.90
2019-05-01T02:59:14.051Z,110.37
2019-05-01T03:01:47.659Z,115.10
2019-05-01T03:04:16.740Z,100.93
2019-05-01T03:06:47.959Z,104.80
2019-05-01T03:09:19.521Z,109.40
2019-05-01T03:11:52.110Z,93.23
2019-05-01T03:14:25.039Z,121.43
2019-05-01T03:16:58.779Z,101.57
2019-05-01T03:20:06.045Z,125.87
2019-05-01T03:22:42.817Z,93.67
2019-05-01T03:25:13.882Z,99.90
2019-05-01T03:27:45.166Z,83.47
2019-05-01T03:30:15.356Z,90.00
2019-05-01T03:32:45.531Z,91.63
2019-05-01T03:35:15.528Z,91.27
2019-05-01T03:37:45.989Z,99.50
2019-05-01T03:40:16.214Z,101.30
2019-05-01T03:42:46.472Z,74.63
2019-05-01T03:45:16.762Z,110.00
2019-05-01T03:47:47.076Z,124.63
2019-05-01T03:50:17.738Z,122.00
2019-05-01T03:52:48.104Z,121.77
2019-05-01T03:55:18.294Z,97.93
2019-05-01T03:57:48.469Z,109.50
2019-05-01T04:00:24.985Z,127.40
2019-05-01T04:03:12.866Z,109.93
2019-05-01T04:05:43.001Z,88.47
2019-05-01T04:08:13.362Z,114.30
2019-05-01T04:10:43.691Z,103.87
2019-05-01T04:13:13.756Z,105.87
2019-05-01T04:15:43.961Z,98.03
2019-05-01T04:18:14.279Z,98.23
2019-05-01T04:20:45.079Z,114.67
2019-05-01T04:23:15.677Z,101.07
2019-05-01T04:25:45.809Z,85.60
2019-05-01T04:28:47.214Z,87.97
2019-05-01T04:31:32.431Z,109.87
2019-05-01T04:34:06.293Z,93.80
2019-05-01T04:36:40.359Z,83.67
2019-05-01T04:39:10.370Z,79.57
2019-05-01T04:41:40.545Z,72.70
2019-05-01T04:44:10.926Z,89.43
2019-05-01T04:46:40.831Z,80.00
2019-05-01T04:49:11.018Z,74.57
2019-05-01T04:51:41.148Z,90.10
2019-05-01T04:54:11.399Z,68.40
2019-05-01T04:56:41.488Z,62.53
2019-05-01T04:59:11.749Z,60.13
2019-05-01T05:01:57.127Z,58.87
2019-05-01T05:04:26.447Z,59.30
2019-05-01T05:06:56.766Z,50.60
2019-05-01T05:09:47.158Z,45.50
2019-05-01T05:12:40.798Z,46.40
2019-05-01T05:15:21.961Z,42.43
2019-05-01T05:17:52.350Z,42.13
2019-05-01T05:20:22.578Z,35.00
2019-05-01T05:22:52.760Z,29.70
2019-05-01T05:25:23.398Z,33.10
2019-05-01T05:27:55.383Z,25.27
2019-05-01T05:30:27.986Z,21.87
2019-05-01T05:32:58.487Z,24.40
2019-05-01T05:35:30.039Z,23.33
2019-05-01T05:38:20.510Z,31.33
2019-05-01T05:40:51.364Z,29.93
2019-05-01T05:43:21.835Z,24.90
2019-05-01T05:45:51.923Z,27.40
2019-05-01T05:48:21.936Z,30.47
2019-05-01T05:51:05.862Z,28.07
2019-05-01T05:53:41.738Z,33.53
2019-05-01T05:56:19.994Z,27.83
2019-05-01T05:58:56.537Z,30.97
2019-05-01T06:01:43.387Z,24.63
2019-05-01T06:04:34.740Z,28.27
2019-05-01T06:07:10.892Z,28.40
2019-05-01T06:09:54.521Z,27.57
2019-05-01T06:12:46.654Z,27.37
2019-05-01T06:15:36.712Z,28.00
2019-05-01T06:18:13.997Z,29.93
2019-05-01T06:21:03.882Z,26.63
2019-05-01T06:23:57.794Z,34.00
2019-05-01T06:26:37.352Z,26.10
2019-05-01T06:29:06.252Z,27.60
2019-05-01T06:31:36.969Z,26.20
2019-05-01T06:34:07.170Z,30.70
2019-05-01T06:36:37.639Z,27.73
2019-05-01T06:39:11.774Z,25.23
2019-05-01T06:41:44.106Z,28.80
2019-05-01T06:44:24.332Z,24.83
2019-05-01T06:47:07.477Z,25.97
2019-05-01T06:50:01.111Z,26.97
2019-05-01T06:52:31.242Z,37.27
2019-05-01T06:55:01.322Z,29.23
2019-05-01T06:57:32.047Z,29.77
2019-05-01T07:00:07.625Z,27.30
2019-05-01T07:02:35.463Z,31.50
2019-05-01T07:05:09.024Z,25.40
2019-05-01T07:07:43.012Z,27.57
2019-05-01T07:10:12.311Z,25.90
2019-05-01T07:12:42.871Z,29.27
2019-05-01T07:15:13.988Z,28.30
2019-05-01T07:17:47.819Z,28.07
2019-05-01T07:20:41.048Z,31.63
2019-05-01T07:23:12.798Z,27.10
2019-05-01T07:25:42.914Z,25.73
2019-05-01T07:28:12.942Z,26.43
2019-05-01T07:30:58.959Z,31.40
2019-05-01T07:33:29.154Z,27.93
2019-05-01T07:35:59.497Z,30.33
2019-05-01T07:38:32.970Z,28.37
2019-05-01T07:41:03.342Z,29.07
2019-05-01T07:43:45.382Z,29.80
2019-05-01T07:46:36.551Z,27.30
2019-05-01T07:49:06.944Z,28.20
2019-05-01T07:51:42.347Z,29.07
2019-05-01T07:54:11.600Z,28.33
2019-05-01T07:56:41.751Z,33.83
2019-05-01T07:59:11.962Z,27.33
2019-05-01T08:01:59.210Z,27.70
2019-05-01T08:04:36.926Z,32.00
2019-05-01T08:07:01.396Z,31.70
2019-05-01T08:09:31.450Z,25.03
2019-05-01T08:12:01.493Z,27.00
2019-05-01T08:14:31.396Z,28.40
2019-05-01T08:17:01.843Z,32.13
2019-05-01T08:19:39.526Z,29.13
2019-05-01T08:22:16.515Z,33.77
2019-05-01T08:24:46.686Z,31.07
2019-05-01T08:27:23.898Z,28.43
2019-05-01T08:30:04.339Z,36.80
2019-05-01T08:32:53.222Z,34.47
2019-05-01T08:35:25.188Z,32.77
2019-05-01T08:37:58.431Z,30.60
2019-05-01T08:40:26.897Z,33.93
2019-05-01T08:42:56.923Z,29.80
2019-05-01T08:45:52.237Z,32.20
2019-05-01T08:48:30.828Z,26.67
2019-05-01T08:51:01.629Z,28.40
2019-05-01T08:53:31.603Z,26.30
2019-05-01T08:56:01.750Z,27.33
2019-05-01T08:58:31.679Z,25.40
2019-05-01T09:01:01.619Z,26.70
2019-05-01T09:03:31.734Z,27.50
2019-05-01T09:06:01.776Z,33.27
2019-05-01T09:08:33.270Z,26.83
2019-05-01T09:11:03.265Z,28.63
2019-05-01T09:13:33.273Z,29.57
2019-05-01T09:16:03.176Z,28.27
2019-05-01T09:18:33.204Z,28.47
2019-05-01T09:21:03.185Z,29.90
2019-05-01T09:23:34.524Z,25.40
2019-05-01T09:26:26.526Z,24.37
2019-05-01T09:29:01.103Z,23.27
2019-05-01T09:31:34.018Z,25.63
2019-05-01T09:34:03.974Z,26.43
2019-05-01T09:36:34.193Z,22.07
2019-05-01T09:39:05.574Z,22.17
2019-05-01T09:41:38.515Z,18.50
2019-05-01T09:44:10.656Z,23.17
2019-05-01T09:46:39.152Z,19.43
2019-05-01T09:49:09.451Z,25.20
2019-05-01T09:52:02.274Z,19.20
2019-05-01T09:54:54.026Z,15.10
2019-05-01T09:57:23.975Z,17.93
2019-05-01T09:59:53.976Z,24.53
2019-05-01T10:02:24.428Z,24.50
2019-05-01T10:04:54.492Z,25.00
2019-05-01T10:07:28.891Z,21.70
2019-05-01T10:09:56.177Z,19.77
2019-05-01T10:12:26.148Z,21.97
2019-05-01T10:14:56.226Z,20.93
2019-05-01T10:17:26.217Z,18.50
2019-05-01T10:19:56.187Z,18.00
2019-05-01T10:22:26.093Z,20.47
2019-05-01T10:24:56.026Z,23.73
2019-05-01T10:27:30.798Z,22.70
2019-05-01T10:30:10.728Z,21.20
2019-05-01T10:32:43.491Z,20.70
2019-05-01T10:35:21.191Z,27.20
2019-05-01T10:37:51.258Z,25.13
2019-05-01T10:40:22.381Z,20.53
2019-05-01T10:42:52.374Z,21.13
2019-05-01T10:45:23.325Z,23.17
2019-05-01T10:47:53.329Z,19.70
2019-05-01T10:50:23.306Z,18.90
2019-05-01T10:52:53.222Z,21.60
2019-05-01T10:55:23.163Z,18.43
2019-05-01T10:57:53.103Z,23.50
2019-05-01T11:00:23.457Z,19.90
2019-05-01T11:02:53.367Z,18.90
2019-05-01T11:05:23.347Z,18.73
2019-05-01T11:07:53.236Z,20.47
2019-05-01T11:10:23.294Z,20.13
2019-05-01T11:12:53.197Z,17.70
2019-05-01T11:15:23.429Z,17.30
2019-05-01T11:17:53.555Z,20.73
2019-05-01T11:20:23.630Z,21.23
2019-05-01T11:22:53.737Z,21.27
2019-05-01T11:25:23.755Z,19.93
2019-05-01T11:27:53.687Z,16.90
2019-05-01T11:30:23.804Z,19.90
2019-05-01T11:33:15.755Z,18.03
2019-05-01T11:36:09.317Z,17.03
2019-05-01T11:38:43.329Z,16.90
2019-05-01T11:41:20.810Z,19.10
2019-05-01T11:43:50.800Z,19.10
2019-05-01T11:46:20.850Z,17.83
2019-05-01T11:48:50.758Z,18.13
2019-05-01T11:51:20.887Z,20.13
2019-05-01T11:53:50.828Z,21.00
2019-05-01T11:56:20.854Z,19.87
2019-05-01T11:58:50.781Z,20.83
2019-05-01T12:01:41.787Z,17.40
2019-05-01T12:04:11.659Z,14.80
2019-05-01T12:06:41.928Z,19.90
2019-05-01T12:09:11.964Z,16.60
2019-05-01T12:11:43.658Z,14.50
2019-05-01T12:14:13.652Z,15.47
2019-05-01T12:17:04.284Z,19.87
2019-05-01T12:19:34.217Z,15.53
2019-05-01T12:22:04.513Z,16.47
2019-05-01T12:24:34.748Z,15.67
2019-05-01T12:27:05.458Z,14.97
2019-05-01T12:29:35.374Z,13.30
2019-05-01T12:32:05.542Z,12.30
2019-05-01T12:34:35.531Z,20.30
2019-05-01T12:37:26.276Z,15.20
2019-05-01T12:39:56.497Z,13.80
2019-05-01T12:42:28.804Z,13.73
2019-05-01T12:44:59.475Z,12.60
2019-05-01T12:47:43.795Z,15.93
2019-05-01T12:50:15.756Z,14.37
2019-05-01T12:53:13.918Z,15.07
2019-05-01T12:56:15.311Z,13.70
2019-05-01T12:58:50.098Z,17.07
2019-05-01T13:01:20.740Z,15.40
2019-05-01T13:03:50.930Z,16.33
2019-05-01T13:06:21.019Z,17.53
2019-05-01T13:08:51.285Z,14.53
2019-05-01T13:11:21.249Z,13.53
2019-05-01T13:13:51.163Z,13.53
2019-05-01T13:16:21.192Z,10.57
2019-05-01T13:18:51.131Z,10.97
2019-05-01T13:21:21.080Z,14.23
2019-05-01T13:23:51.057Z,12.60
2019-05-01T13:26:27.819Z,10.50
2019-05-01T13:29:08.976Z,10.10
2019-05-01T13:32:00.660Z,14.13
2019-05-01T13:34:30.648Z,11.47
2019-05-01T13:37:03.235Z,10.47
2019-05-01T13:39:32.431Z,11.07
2019-05-01T13:42:02.441Z,9.70
2019-05-01T13:44:32.451Z,8.60
2019-05-01T13:47:02.673Z,9.03
2019-05-01T13:49:32.579Z,12.90
2019-05-01T13:52:02.521Z,13.27
2019-05-01T13:54:32.416Z,12.03
2019-05-01T13:57:02.379Z,9.33
2019-05-01T13:59:32.287Z,10.20
2019-05-01T14:02:02.309Z,9.77
2019-05-01T14:04:32.366Z,10.30
2019-05-01T14:07:15.264Z,8.63
2019-05-01T14:09:34.336Z,9.30
2019-05-01T14:12:04.697Z,10.50
2019-05-01T14:14:34.603Z,9.10
2019-05-01T14:17:04.659Z,7.50
2019-05-01T14:19:36.432Z,10.80
2019-05-01T14:22:28.516Z,11.23
2019-05-01T14:24:59.547Z,9.20
2019-05-01T14:27:29.711Z,14.73
2019-05-01T14:29:59.743Z,11.03
2019-05-01T14:32:29.704Z,9.87
2019-05-01T14:34:59.719Z,10.43
2019-05-01T14:37:30.174Z,13.57
2019-05-01T14:40:00.145Z,11.80
2019-05-01T14:42:30.075Z,17.67
2019-05-01T14:45:00.141Z,10.00
2019-05-01T14:47:31.176Z,8.90
2019-05-01T14:50:01.492Z,9.50
2019-05-01T14:52:31.420Z,11.00
2019-05-01T14:55:01.367Z,8.57
2019-05-01T14:57:31.359Z,11.73
2019-05-01T15:00:01.294Z,9.63
2019-05-01T15:02:31.224Z,13.37
2019-05-01T15:05:01.216Z,8.50
2019-05-01T15:07:42.768Z,8.00
2019-05-01T15:10:03.475Z,13.80
2019-05-01T15:12:33.461Z,12.30
2019-05-01T15:15:20.815Z,9.60
2019-05-01T15:18:05.065Z,11.43
2019-05-01T15:20:34.985Z,11.40
2019-05-01T15:23:05.004Z,8.63
2019-05-01T15:25:34.892Z,9.70
2019-05-01T15:28:04.892Z,12.80
2019-05-01T15:30:34.829Z,13.53
2019-05-01T15:33:04.717Z,8.53
2019-05-01T15:35:34.649Z,8.43
2019-05-01T15:38:04.935Z,9.67
2019-05-01T15:40:44.122Z,12.73
2019-05-01T15:43:26.283Z,9.10
2019-05-01T15:45:56.694Z,9.33
2019-05-01T15:48:26.701Z,13.63
2019-05-01T15:50:57.049Z,10.40
2019-05-01T15:53:27.093Z,9.50
2019-05-01T15:55:57.045Z,11.40
2019-05-01T15:58:27.208Z,12.10
2019-05-01T16:00:57.165Z,10.90
2019-05-01T16:03:27.053Z,7.67
2019-05-01T16:05:56.975Z,9.00
2019-05-01T16:08:26.951Z,10.30
2019-05-01T16:11:12.738Z,9.07
2019-05-01T16:13:42.659Z,11.57
2019-05-01T16:16:12.624Z,9.40
2019-05-01T16:18:42.535Z,9.63
2019-05-01T16:21:12.729Z,9.97
2019-05-01T16:23:42.648Z,11.80
2019-05-01T16:26:12.691Z,10.30
2019-05-01T16:28:42.591Z,8.87
2019-05-01T16:31:12.853Z,10.20
2019-05-01T16:33:42.743Z,11.50
2019-05-01T16:36:13.168Z,9.47
2019-05-01T16:38:57.106Z,11.60
2019-05-01T16:41:28.234Z,10.17
2019-05-01T16:43:58.218Z,12.43
2019-05-01T16:46:28.161Z,9.33
2019-05-01T16:48:58.138Z,11.40
2019-05-01T16:51:28.081Z,9.47
2019-05-01T16:53:58.113Z,9.77
2019-05-01T16:56:28.164Z,10.13
2019-05-01T16:58:58.196Z,12.27
2019-05-01T17:01:48.510Z,9.17
2019-05-01T17:04:30.025Z,16.67
2019-05-01T17:07:21.854Z,11.70
2019-05-01T17:10:10.682Z,9.00
2019-05-01T17:12:45.557Z,12.00
2019-05-01T17:15:17.794Z,13.67
2019-05-01T17:17:47.897Z,9.83
2019-05-01T17:20:18.485Z,12.00
2019-05-01T17:22:50.854Z,9.10
2019-05-01T17:25:20.650Z,11.23
2019-05-01T17:27:50.683Z,11.90
2019-05-01T17:30:37.096Z,11.70
2019-05-01T17:33:07.287Z,10.63
2019-05-01T17:35:41.762Z,8.10
2019-05-01T17:38:10.419Z,12.23
2019-05-01T17:40:40.542Z,10.60
2019-05-01T17:43:13.432Z,10.47
2019-05-01T17:45:42.115Z,9.63
2019-05-01T17:48:12.746Z,10.77
2019-05-01T17:50:43.005Z,11.27
2019-05-01T17:53:12.944Z,8.30
2019-05-01T17:55:42.916Z,9.40
2019-05-01T17:58:12.907Z,8.67
2019-05-01T18:01:04.981Z,14.73
2019-05-01T18:03:52.075Z,13.37
2019-05-01T18:06:33.661Z,9.97
2019-05-01T18:09:08.127Z,8.20
2019-05-01T18:11:36.814Z,9.50
2019-05-01T18:14:07.158Z,11.53
2019-05-01T18:16:37.118Z,12.93
2019-05-01T18:19:09.869Z,12.73
2019-05-01T18:21:41.025Z,13.43
2019-05-01T18:24:29.353Z,11.07
2019-05-01T18:27:19.063Z,16.10
2019-05-01T18:29:53.244Z,14.40
2019-05-01T18:32:41.637Z,11.30
2019-05-01T18:35:14.254Z,12.67
2019-05-01T18:37:47.387Z,12.07
2019-05-01T18:40:24.519Z,12.70
2019-05-01T18:42:54.845Z,10.33
2019-05-01T18:45:53.854Z,12.23
2019-05-01T18:48:25.045Z,10.10
2019-05-01T18:50:56.361Z,13.57
2019-05-01T18:53:26.464Z,10.70
2019-05-01T18:55:56.640Z,11.77
2019-05-01T18:58:26.551Z,15.70
2019-05-01T19:00:56.873Z,11.90
2019-05-01T19:03:26.895Z,11.57
2019-05-01T19:05:57.002Z,10.67
2019-05-01T19:08:27.506Z,11.63
2019-05-01T19:11:05.638Z,11.80
2019-05-01T19:13:30.501Z,11.00
2019-05-01T19:16:03.283Z,9.40
2019-05-01T19:18:32.377Z,20.20
2019-05-01T19:21:02.891Z,12.10
2019-05-01T19:23:33.410Z,15.40
2019-05-01T19:26:06.647Z,13.50
2019-05-01T19:28:35.673Z,11.20
2019-05-01T19:31:05.784Z,15.60
2019-05-01T19:33:35.791Z,10.50
2019-05-01T19:36:08.253Z,15.27
2019-05-01T19:38:38.218Z,11.00
2019-05-01T19:41:11.687Z,14.50
2019-05-01T19:43:40.769Z,13.70
2019-05-01T19:46:11.960Z,19.00
2019-05-01T19:48:45.472Z,17.13
2019-05-01T19:51:14.299Z,14.30
2019-05-01T19:53:46.609Z,20.67
2019-05-01T19:56:16.637Z,13.80
2019-05-01T19:58:47.869Z,14.77
2019-05-01T20:01:17.938Z,12.67
2019-05-01T20:03:47.865Z,13.20
2019-05-01T20:06:18.665Z,13.53
2019-05-01T20:08:48.654Z,13.17
2019-05-01T20:11:18.776Z,15.97
2019-05-01T20:13:48.758Z,23.57
2019-05-01T20:16:20.417Z,15.37
2019-05-01T20:18:50.654Z,17.57
2019-05-01T20:21:20.753Z,13.70
2019-05-01T20:23:50.664Z,15.47
2019-05-01T20:26:20.763Z,17.03
2019-05-01T20:28:51.021Z,13.87
2019-05-01T20:31:22.957Z,12.13
2019-05-01T20:33:52.911Z,16.73
2019-05-01T20:36:23.186Z,15.40
2019-05-01T20:38:53.344Z,12.73
2019-05-01T20:41:23.963Z,25.63
2019-05-01T20:43:54.728Z,20.30
2019-05-01T20:46:26.085Z,14.37
2019-05-01T20:49:01.453Z,11.97
2019-05-01T20:51:28.421Z,19.90
2019-05-01T20:53:58.647Z,13.00
2019-05-01T20:56:43.656Z,19.80
2019-05-01T20:59:13.697Z,19.43
2019-05-01T21:01:43.787Z,19.73
2019-05-01T21:04:33.446Z,20.83
2019-05-01T21:07:15.661Z,15.97
2019-05-01T21:09:47.907Z,12.33
2019-05-01T21:12:17.390Z,20.50
2019-05-01T21:14:49.622Z,15.30
2019-05-01T21:17:19.243Z,13.40
2019-05-01T21:19:49.239Z,17.47
2019-05-01T21:22:19.214Z,13.60
2019-05-01T21:24:49.393Z,20.60
2019-05-01T21:27:19.564Z,21.23
2019-05-01T21:29:49.500Z,15.20
2019-05-01T21:32:26.109Z,15.23
2019-05-01T21:34:53.710Z,19.00
2019-05-01T21:37:23.710Z,16.27
2019-05-01T21:39:53.869Z,15.47
2019-05-01T21:42:24.488Z,12.53
2019-05-01T21:44:54.677Z,15.17
2019-05-01T21:47:24.799Z,15.20
2019-05-01T21:49:54.714Z,21.30
2019-05-01T21:52:26.772Z,14.47
2019-05-01T21:54:57.099Z,19.60
2019-05-01T21:57:29.889Z,16.20
2019-05-01T21:59:58.749Z,15.63
2019-05-01T22:02:28.771Z,16.53
2019-05-01T22:05:03.826Z,16.50
2019-05-01T22:07:30.311Z,17.77
2019-05-01T22:10:00.219Z,18.73
2019-05-01T22:12:30.228Z,14.83
2019-05-01T22:15:06.097Z,15.77
2019-05-01T22:17:43.816Z,16.70
2019-05-01T22:20:16.249Z,17.73
2019-05-01T22:22:51.109Z,14.83
2019-05-01T22:25:25.836Z,20.33
2019-05-01T22:28:02.255Z,19.97
2019-05-01T22:30:46.433Z,17.87
2019-05-01T22:33:14.968Z,20.53
2019-05-01T22:35:46.880Z,18.03
2019-05-01T22:38:16.894Z,15.43
2019-05-01T22:41:06.990Z,15.20
2019-05-01T22:43:35.665Z,17.50
2019-05-01T22:46:07.753Z,19.43
2019-05-01T22:48:38.274Z,14.07
2019-05-01T22:51:17.454Z,20.43
2019-05-01T22:53:50.333Z,20.83
2019-05-01T22:56:21.054Z,16.53
2019-05-01T22:58:51.356Z,19.00
2019-05-01T23:01:21.799Z,18.37
2019-05-01T23:03:54.504Z,20.30
2019-05-01T23:06:24.523Z,18.07
2019-05-01T23:08:54.731Z,19.57
2019-05-01T23:11:26.515Z,15.17
2019-05-01T23:13:56.921Z,18.00
2019-05-01T23:16:30.381Z,19.93
2019-05-01T23:19:00.480Z,22.07
2019-05-01T23:21:30.632Z,17.03
2019-05-01T23:24:01.995Z,19.83
2019-05-01T23:26:32.995Z,20.37
2019-05-01T23:29:03.011Z,16.67
2019-05-01T23:31:32.979Z,17.90
2019-05-01T23:34:03.085Z,26.57
2019-05-01T23:36:32.996Z,16.50
2019-05-01T23:39:02.935Z,18.00
2019-05-01T23:41:45.184Z,19.77
2019-05-01T23:44:05.525Z,23.53
2019-05-01T23:46:35.441Z,19.67
2019-05-01T23:49:05.442Z,20.37
2019-05-01T23:51:35.436Z,17.40
2019-05-01T23:54:05.589Z,21.97
2019-05-01T23:56:36.371Z,19.57
2019-05-01T23:59:06.759Z,18.83
